createdAt,value
2023-08-14T00:01:25.845Z,52.16
2023-08-14T00:03:53.371Z,51.59
2023-08-14T00:06:26.584Z,51.90
2023-08-14T00:08:53.879Z,52.54
2023-08-14T00:11:30.296Z,53.19
2023-08-14T00:13:57.946Z,53.36
2023-08-14T00:16:28.598Z,53.82
2023-08-14T00:19:08.267Z,53.84
2023-08-14T00:21:44.105Z,54.30
2023-08-14T00:24:11.448Z,54.42
2023-08-14T00:26:39.935Z,54.61
2023-08-14T00:29:06.927Z,54.66
2023-08-14T00:31:34.082Z,54.70
2023-08-14T00:34:01.702Z,55.21
2023-08-14T00:36:28.838Z,55.13
2023-08-14T00:38:58.972Z,55.14
2023-08-14T00:41:26.308Z,55.46
2023-08-14T00:43:57.185Z,55.10
2023-08-14T00:46:25.677Z,55.04
2023-08-14T00:48:53.587Z,55.22
2023-08-14T00:51:22.246Z,54.76
2023-08-14T00:53:50.453Z,55.49
2023-08-14T00:56:19.361Z,55.72
2023-08-14T00:58:47.011Z,55.89
2023-08-14T01:01:16.019Z,56.25
2023-08-14T01:03:43.554Z,55.89
2023-08-14T01:06:10.773Z,55.78
2023-08-14T01:08:38.164Z,55.82
2023-08-14T01:11:13.804Z,56.37
2023-08-14T01:13:47.778Z,56.92
2023-08-14T01:16:20.958Z,57.07
2023-08-14T01:18:49.242Z,57.47
2023-08-14T01:21:32.111Z,57.63
2023-08-14T01:24:07.885Z,57.91
2023-08-14T01:26:37.261Z,57.66
2023-08-14T01:29:05.111Z,57.24
2023-08-14T01:31:32.269Z,57.60
2023-08-14T01:33:59.556Z,57.27
2023-08-14T01:36:31.862Z,57.43
2023-08-14T01:39:07.597Z,57.50
2023-08-14T01:41:43.185Z,57.67
2023-08-14T01:44:15.248Z,57.75
2023-08-14T01:46:44.591Z,57.93
2023-08-14T01:49:15.179Z,57.64
2023-08-14T01:51:42.888Z,58.06
2023-08-14T01:54:10.898Z,58.07
2023-08-14T01:56:39.279Z,58.18
2023-08-14T01:59:06.679Z,58.17
2023-08-14T02:01:33.744Z,58.11
2023-08-14T02:04:01.075Z,57.84
2023-08-14T02:06:28.097Z,57.74
2023-08-14T02:08:55.459Z,57.87
2023-08-14T02:11:22.372Z,57.80
2023-08-14T02:13:51.084Z,58.31
2023-08-14T02:16:20.310Z,58.32
2023-08-14T02:18:47.618Z,58.24
2023-08-14T02:21:14.628Z,58.47
2023-08-14T02:23:42.080Z,58.35
2023-08-14T02:26:09.626Z,58.33
2023-08-14T02:28:36.931Z,58.35
2023-08-14T02:31:06.219Z,58.19
2023-08-14T02:33:33.813Z,58.08
2023-08-14T02:36:01.009Z,58.29
2023-08-14T02:38:28.445Z,57.78
2023-08-14T02:40:55.413Z,57.80
2023-08-14T02:43:22.740Z,57.53
2023-08-14T02:45:49.800Z,57.72
2023-08-14T02:48:18.466Z,57.53
2023-08-14T02:50:45.476Z,57.63
2023-08-14T02:53:12.997Z,57.58
2023-08-14T02:55:39.902Z,57.42
2023-08-14T02:58:07.272Z,57.48
2023-08-14T03:00:34.632Z,57.50
2023-08-14T03:03:03.966Z,57.57
2023-08-14T03:05:32.452Z,57.64
2023-08-14T03:07:59.732Z,57.57
2023-08-14T03:10:26.839Z,57.50
2023-08-14T03:12:54.227Z,57.82
2023-08-14T03:15:21.200Z,57.97
2023-08-14T03:17:48.864Z,57.89
2023-08-14T03:20:16.635Z,58.07
2023-08-14T03:22:45.534Z,58.26
2023-08-14T03:25:12.297Z,58.27
2023-08-14T03:27:39.562Z,58.55
2023-08-14T03:30:08.003Z,58.43
2023-08-14T03:32:35.341Z,58.51
2023-08-14T03:35:02.339Z,58.59
2023-08-14T03:37:29.503Z,58.37
2023-08-14T03:40:00.600Z,58.26
2023-08-14T03:42:31.057Z,58.12
2023-08-14T03:44:58.032Z,58.33
2023-08-14T03:47:25.283Z,58.34
2023-08-14T03:49:52.382Z,58.34
2023-08-14T03:52:19.890Z,58.53
2023-08-14T03:54:47.170Z,58.48
2023-08-14T03:57:15.740Z,58.28
2023-08-14T03:59:42.767Z,58.30
2023-08-14T04:02:10.208Z,58.21
2023-08-14T04:04:37.207Z,58.09
2023-08-14T04:07:04.470Z,58.04
2023-08-14T04:09:31.724Z,57.88
2023-08-14T04:11:59.669Z,57.73
2023-08-14T04:14:28.554Z,57.48
2023-08-14T04:16:56.171Z,57.35
2023-08-14T04:19:23.494Z,57.31
2023-08-14T04:21:50.752Z,57.20
2023-08-14T04:24:17.929Z,56.86
2023-08-14T04:26:45.383Z,56.57
2023-08-14T04:29:12.407Z,56.57
2023-08-14T04:31:41.832Z,56.21
2023-08-14T04:34:10.470Z,56.21
2023-08-14T04:36:38.152Z,55.93
2023-08-14T04:39:05.708Z,55.12
2023-08-14T04:41:32.894Z,54.75
2023-08-14T04:44:00.404Z,53.86
2023-08-14T04:46:38.286Z,52.59
2023-08-14T04:49:13.672Z,52.10
2023-08-14T04:51:40.715Z,51.62
2023-08-14T04:54:07.838Z,50.90
2023-08-14T04:56:35.486Z,50.42
2023-08-14T04:59:02.557Z,49.07
2023-08-14T05:01:29.843Z,46.33
2023-08-14T05:03:57.148Z,44.33
2023-08-14T05:06:26.007Z,41.75
2023-08-14T05:08:52.959Z,39.57
2023-08-14T05:11:20.362Z,37.82
2023-08-14T05:13:47.703Z,36.45
2023-08-14T05:16:15.036Z,35.52
2023-08-14T05:18:42.138Z,35.38
2023-08-14T05:21:09.436Z,34.66
2023-08-14T05:23:38.174Z,34.35
2023-08-14T05:26:05.529Z,33.71
2023-08-14T05:28:33.313Z,33.67
2023-08-14T05:31:00.903Z,33.45
2023-08-14T05:33:28.012Z,32.18
2023-08-14T05:35:55.443Z,29.88
2023-08-14T05:38:22.396Z,31.92
2023-08-14T05:40:51.096Z,33.49
2023-08-14T05:43:18.635Z,34.88
2023-08-14T05:45:47.116Z,35.73
2023-08-14T05:48:15.168Z,36.85
2023-08-14T05:50:42.973Z,37.31
2023-08-14T05:53:14.087Z,37.75
2023-08-14T05:55:53.555Z,38.29
2023-08-14T05:58:20.655Z,38.74
2023-08-14T06:00:48.224Z,38.61
2023-08-14T06:03:25.620Z,39.20
2023-08-14T06:05:56.638Z,39.25
2023-08-14T06:08:23.751Z,39.63
2023-08-14T06:10:53.864Z,39.50
2023-08-14T06:13:21.006Z,40.44
2023-08-14T06:15:53.240Z,40.34
2023-08-14T06:18:20.385Z,40.03
2023-08-14T06:20:47.887Z,39.99
2023-08-14T06:23:14.826Z,39.75
2023-08-14T06:25:42.172Z,39.56
2023-08-14T06:28:13.270Z,39.30
2023-08-14T06:30:40.660Z,39.52
2023-08-14T06:33:07.686Z,38.46
2023-08-14T06:35:34.973Z,38.31
2023-08-14T06:38:05.116Z,38.37
2023-08-14T06:40:32.756Z,37.79
2023-08-14T06:43:00.011Z,38.18
2023-08-14T06:45:31.958Z,37.79
2023-08-14T06:47:59.122Z,38.45
2023-08-14T06:50:26.822Z,39.23
2023-08-14T06:52:54.151Z,38.81
2023-08-14T06:55:22.083Z,38.33
2023-08-14T06:57:51.161Z,37.80
2023-08-14T07:00:18.993Z,38.17
2023-08-14T07:02:48.620Z,38.43
2023-08-14T07:05:17.901Z,38.50
2023-08-14T07:07:44.982Z,38.02
2023-08-14T07:10:12.537Z,37.23
2023-08-14T07:12:45.154Z,37.53
2023-08-14T07:15:13.832Z,37.81
2023-08-14T07:17:44.918Z,37.52
2023-08-14T07:20:15.695Z,38.01
2023-08-14T07:22:48.474Z,37.65
2023-08-14T07:25:15.893Z,37.45
2023-08-14T07:27:42.892Z,37.25
2023-08-14T07:30:11.113Z,36.81
2023-08-14T07:32:38.194Z,37.39
2023-08-14T07:35:06.618Z,37.31
2023-08-14T07:37:34.966Z,36.93
2023-08-14T07:40:02.371Z,36.25
2023-08-14T07:42:29.458Z,36.44
2023-08-14T07:44:56.860Z,36.13
2023-08-14T07:47:23.945Z,36.03
2023-08-14T07:49:51.195Z,35.78
2023-08-14T07:52:18.548Z,36.32
2023-08-14T07:54:47.550Z,36.39
2023-08-14T07:57:14.631Z,35.22
2023-08-14T07:59:42.043Z,35.84
2023-08-14T08:02:09.083Z,34.38
2023-08-14T08:04:40.834Z,34.54
2023-08-14T08:07:08.402Z,34.59
2023-08-14T08:09:35.809Z,34.78
2023-08-14T08:12:04.817Z,34.58
2023-08-14T08:14:33.097Z,34.23
2023-08-14T08:17:00.506Z,33.49
2023-08-14T08:19:28.166Z,33.84
2023-08-14T08:21:55.565Z,33.79
2023-08-14T08:24:22.848Z,33.68
2023-08-14T08:26:49.985Z,33.35
2023-08-14T08:29:18.675Z,33.44
2023-08-14T08:31:45.786Z,32.05
2023-08-14T08:34:13.313Z,31.44
2023-08-14T08:36:40.199Z,30.96
2023-08-14T08:39:11.893Z,31.74
2023-08-14T08:41:44.804Z,31.85
2023-08-14T08:44:16.812Z,29.98
2023-08-14T08:46:51.918Z,29.62
2023-08-14T08:49:20.871Z,30.30
2023-08-14T08:51:49.796Z,30.69
2023-08-14T08:54:17.914Z,30.46
2023-08-14T08:56:46.951Z,30.48
2023-08-14T08:59:17.703Z,30.06
2023-08-14T09:01:48.134Z,30.42
2023-08-14T09:04:16.067Z,29.88
2023-08-14T09:06:43.534Z,29.60
2023-08-14T09:09:13.205Z,29.66
2023-08-14T09:11:42.452Z,29.78
2023-08-14T09:14:10.753Z,29.49
2023-08-14T09:16:41.500Z,29.65
2023-08-14T09:19:10.428Z,29.21
2023-08-14T09:21:38.514Z,28.62
2023-08-14T09:24:10.858Z,29.03
2023-08-14T09:26:37.938Z,28.88
2023-08-14T09:29:13.009Z,29.11
2023-08-14T09:31:43.639Z,29.11
2023-08-14T09:34:18.083Z,28.84
2023-08-14T09:36:45.302Z,28.39
2023-08-14T09:39:13.502Z,27.58
2023-08-14T09:41:40.505Z,28.30
2023-08-14T09:44:07.897Z,28.39
2023-08-14T09:46:35.105Z,27.47
2023-08-14T09:49:02.775Z,27.62
2023-08-14T09:51:33.597Z,28.04
2023-08-14T09:54:01.072Z,28.50
2023-08-14T09:56:28.222Z,27.87
2023-08-14T09:58:55.942Z,28.82
2023-08-14T10:01:24.064Z,27.70
2023-08-14T10:03:54.394Z,27.13
2023-08-14T10:06:24.696Z,26.69
2023-08-14T10:08:56.374Z,26.73
2023-08-14T10:11:27.330Z,26.55
2023-08-14T10:14:01.530Z,26.36
2023-08-14T10:16:34.619Z,26.69
2023-08-14T10:19:04.413Z,26.55
2023-08-14T10:21:34.325Z,26.60
2023-08-14T10:24:04.496Z,25.92
2023-08-14T10:26:33.094Z,26.07
2023-08-14T10:29:00.911Z,26.01
2023-08-14T10:31:29.097Z,26.19
2023-08-14T10:33:57.619Z,25.75
2023-08-14T10:36:28.212Z,26.00
2023-08-14T10:39:03.176Z,25.48
2023-08-14T10:41:38.000Z,25.00
2023-08-14T10:44:06.245Z,24.43
2023-08-14T10:46:37.634Z,24.54
2023-08-14T10:49:05.365Z,25.03
2023-08-14T10:51:34.327Z,25.00
2023-08-14T10:54:19.444Z,24.51
2023-08-14T10:56:52.833Z,24.64
2023-08-14T10:59:23.780Z,24.95
2023-08-14T11:01:53.181Z,24.60
2023-08-14T11:04:20.712Z,23.39
2023-08-14T11:07:03.980Z,24.35
2023-08-14T11:09:32.909Z,24.36
2023-08-14T11:12:06.668Z,24.05
2023-08-14T11:14:39.186Z,23.96
2023-08-14T11:17:06.495Z,23.85
2023-08-14T11:19:37.571Z,23.86
2023-08-14T11:22:05.206Z,23.28
2023-08-14T11:24:35.535Z,23.24
2023-08-14T11:27:04.329Z,23.82
2023-08-14T11:29:33.092Z,23.25
2023-08-14T11:32:01.699Z,23.00
2023-08-14T11:34:33.621Z,23.16
2023-08-14T11:39:32.971Z,23.34
2023-08-14T11:41:59.946Z,23.44
2023-08-14T11:44:28.966Z,23.23
2023-08-14T11:46:57.577Z,23.56
2023-08-14T11:49:25.903Z,23.08
2023-08-14T11:51:53.753Z,23.12
2023-08-14T11:54:22.128Z,23.26
2023-08-14T11:56:49.277Z,23.52
2023-08-14T11:59:18.037Z,23.97
2023-08-14T12:01:47.121Z,24.15
2023-08-14T12:04:14.535Z,23.48
2023-08-14T12:06:41.707Z,23.76
2023-08-14T12:09:11.043Z,23.51
2023-08-14T12:11:40.003Z,23.91
2023-08-14T12:14:10.301Z,23.86
2023-08-14T12:16:41.050Z,24.43
2023-08-14T12:19:12.593Z,24.57
2023-08-14T12:21:39.995Z,24.33
2023-08-14T12:24:07.726Z,23.67
2023-08-14T12:26:41.693Z,23.38
2023-08-14T12:29:09.410Z,23.46
2023-08-14T12:31:36.764Z,23.45
2023-08-14T12:34:07.271Z,23.74
2023-08-14T12:36:36.389Z,24.06
2023-08-14T12:39:04.183Z,23.89
2023-08-14T12:41:31.577Z,23.52
2023-08-14T12:43:59.001Z,23.98
2023-08-14T12:46:26.832Z,24.29
2023-08-14T12:48:55.423Z,24.66
2023-08-14T12:51:22.735Z,24.47
2023-08-14T12:53:51.753Z,24.30
2023-08-14T12:56:19.230Z,23.66
2023-08-14T12:58:49.963Z,23.97
2023-08-14T13:01:17.461Z,23.98
2023-08-14T13:03:44.940Z,23.85
2023-08-14T13:06:12.075Z,23.72
2023-08-14T13:08:41.726Z,23.87
2023-08-14T13:11:10.081Z,23.66
2023-08-14T13:13:37.677Z,23.38
2023-08-14T13:16:05.001Z,23.71
2023-08-14T13:18:32.466Z,23.65
2023-08-14T13:20:59.750Z,23.86
2023-08-14T13:23:27.242Z,24.08
2023-08-14T13:25:54.371Z,24.04
2023-08-14T13:28:23.014Z,24.26
2023-08-14T13:30:52.852Z,24.29
2023-08-14T13:33:20.176Z,24.10
2023-08-14T13:35:47.666Z,24.32
2023-08-14T13:38:15.025Z,23.97
2023-08-14T13:40:43.805Z,23.36
2023-08-14T13:43:11.075Z,23.60
2023-08-14T13:45:39.699Z,23.87
2023-08-14T13:48:10.276Z,23.58
2023-08-14T13:50:43.048Z,23.79
2023-08-14T13:53:11.073Z,24.09
2023-08-14T13:55:44.776Z,23.91
2023-08-14T13:58:14.268Z,23.98
2023-08-14T14:00:43.117Z,23.99
2023-08-14T14:03:10.773Z,24.24
2023-08-14T14:05:39.575Z,24.21
2023-08-14T14:08:07.222Z,24.37
2023-08-14T14:10:39.602Z,24.40
2023-08-14T14:13:07.152Z,24.62
2023-08-14T14:15:34.195Z,24.53
2023-08-14T14:18:04.013Z,24.10
2023-08-14T14:20:31.062Z,24.08
2023-08-14T14:22:58.348Z,24.41
2023-08-14T14:25:25.353Z,24.16
2023-08-14T14:27:52.822Z,23.86
2023-08-14T14:30:19.871Z,23.73
2023-08-14T14:32:47.314Z,24.29
2023-08-14T14:35:15.714Z,24.06
2023-08-14T14:37:43.137Z,23.92
2023-08-14T14:40:10.950Z,24.18
2023-08-14T14:42:38.371Z,24.25
2023-08-14T14:45:06.518Z,24.22
2023-08-14T14:47:35.001Z,24.33
2023-08-14T14:50:04.832Z,23.71
2023-08-14T14:52:40.933Z,23.77
2023-08-14T14:55:11.224Z,24.04
2023-08-14T14:57:41.364Z,24.01
2023-08-14T15:00:12.008Z,24.28
2023-08-14T15:02:39.432Z,23.97
2023-08-14T15:05:08.747Z,24.38
2023-08-14T15:07:48.904Z,24.47
2023-08-14T15:10:18.253Z,24.45
2023-08-14T15:12:51.534Z,24.29
2023-08-14T15:15:20.936Z,24.43
2023-08-14T15:17:51.674Z,24.20
2023-08-14T15:20:19.089Z,24.59
2023-08-14T15:22:48.241Z,24.59
2023-08-14T15:25:15.432Z,24.60
2023-08-14T15:27:45.154Z,24.27
2023-08-14T15:30:25.067Z,24.38
2023-08-14T15:32:54.362Z,24.29
2023-08-14T15:35:22.146Z,24.28
2023-08-14T15:37:58.646Z,24.40
2023-08-14T15:40:31.736Z,24.61
2023-08-14T15:43:04.426Z,24.77
2023-08-14T15:45:35.680Z,24.76
2023-08-14T15:48:03.156Z,24.85
2023-08-14T15:50:30.149Z,24.78
2023-08-14T15:52:58.931Z,24.79
2023-08-14T15:55:26.138Z,24.64
2023-08-14T15:57:57.019Z,24.55
2023-08-14T16:00:30.918Z,24.64
2023-08-14T16:02:58.395Z,24.14
2023-08-14T16:05:28.404Z,23.90
2023-08-14T16:07:57.918Z,23.81
2023-08-14T16:10:24.840Z,23.80
2023-08-14T16:12:52.543Z,23.36
2023-08-14T16:15:19.426Z,23.35
2023-08-14T16:17:46.818Z,22.82
2023-08-14T16:20:14.063Z,23.18
2023-08-14T16:22:47.292Z,23.71
2023-08-14T16:25:23.321Z,24.05
2023-08-14T16:27:50.500Z,24.31
2023-08-14T16:30:23.240Z,24.62
2023-08-14T16:32:53.222Z,25.20
2023-08-14T16:35:27.412Z,25.29
2023-08-14T16:37:57.008Z,25.41
2023-08-14T16:40:25.623Z,25.92
2023-08-14T16:42:55.952Z,26.11
2023-08-14T16:45:25.765Z,26.81
2023-08-14T16:47:55.794Z,26.82
2023-08-14T16:50:22.782Z,27.31
2023-08-14T16:52:50.263Z,27.03
2023-08-14T16:55:17.782Z,27.83
2023-08-14T16:57:47.960Z,27.78
2023-08-14T17:00:25.590Z,27.67
2023-08-14T17:02:58.067Z,28.35
2023-08-14T17:05:25.260Z,28.30
2023-08-14T17:07:54.775Z,28.66
2023-08-14T17:10:21.808Z,28.85
2023-08-14T17:12:56.473Z,28.77
2023-08-14T17:15:23.638Z,28.92
2023-08-14T17:17:51.329Z,29.61
2023-08-14T17:20:27.060Z,29.40
2023-08-14T17:23:04.637Z,29.97
2023-08-14T17:25:32.865Z,29.99
2023-08-14T17:28:10.211Z,29.66
2023-08-14T17:30:38.407Z,29.77
2023-08-14T17:33:08.909Z,29.94
2023-08-14T17:35:39.667Z,30.23
2023-08-14T17:38:06.903Z,31.05
2023-08-14T17:40:33.916Z,30.56
2023-08-14T17:43:06.286Z,31.34
2023-08-14T17:45:42.882Z,30.84
2023-08-14T17:48:15.190Z,31.68
2023-08-14T17:50:50.058Z,31.31
2023-08-14T17:53:17.510Z,32.04
2023-08-14T17:55:44.658Z,31.86
2023-08-14T17:58:17.499Z,31.91
2023-08-14T18:00:47.769Z,32.51
2023-08-14T18:03:15.549Z,32.66
2023-08-14T18:05:53.605Z,32.91
2023-08-14T18:08:43.163Z,33.21
2023-08-14T18:11:12.068Z,33.65
2023-08-14T18:13:44.083Z,33.67
2023-08-14T18:16:11.253Z,34.03
2023-08-14T18:18:42.967Z,34.50
2023-08-14T18:21:10.003Z,34.40
2023-08-14T18:23:37.532Z,34.78
2023-08-14T18:26:07.090Z,35.01
2023-08-14T18:28:34.371Z,35.08
2023-08-14T18:31:02.921Z,35.52
2023-08-14T18:33:33.502Z,35.48
2023-08-14T18:36:00.508Z,35.37
2023-08-14T18:38:28.200Z,35.86
2023-08-14T18:40:58.041Z,36.05
2023-08-14T18:43:29.319Z,36.50
2023-08-14T18:45:57.705Z,36.35
2023-08-14T18:48:26.382Z,36.94
2023-08-14T18:50:55.893Z,36.97
2023-08-14T18:53:26.869Z,37.08
2023-08-14T18:55:58.965Z,37.01
2023-08-14T18:58:26.394Z,37.19
2023-08-14T19:00:53.467Z,37.51
2023-08-14T19:03:20.854Z,37.82
2023-08-14T19:05:55.636Z,37.80
2023-08-14T19:08:26.452Z,38.14
2023-08-14T19:10:53.462Z,38.40
2023-08-14T19:13:20.876Z,38.77
2023-08-14T19:15:51.232Z,38.71
2023-08-14T19:18:18.656Z,38.79
2023-08-14T19:20:46.435Z,39.14
2023-08-14T19:23:15.307Z,39.27
2023-08-14T19:25:42.283Z,39.36
2023-08-14T19:28:21.710Z,39.42
2023-08-14T19:31:01.602Z,39.61
2023-08-14T19:33:29.132Z,39.74
2023-08-14T19:35:59.550Z,39.96
2023-08-14T19:38:28.200Z,40.47
2023-08-14T19:40:59.650Z,40.42
2023-08-14T19:43:27.103Z,40.38
2023-08-14T19:45:54.391Z,40.65
2023-08-14T19:48:21.743Z,40.81
2023-08-14T19:50:48.750Z,41.17
2023-08-14T19:53:16.538Z,41.40
2023-08-14T19:55:44.934Z,41.27
2023-08-14T19:58:14.393Z,41.42
2023-08-14T20:00:41.377Z,41.40
2023-08-14T20:03:09.025Z,41.53
2023-08-14T20:05:36.441Z,41.83
2023-08-14T20:08:05.511Z,42.01
2023-08-14T20:10:37.648Z,41.91
2023-08-14T20:13:08.725Z,42.22
2023-08-14T20:15:46.280Z,42.03
2023-08-14T20:18:14.492Z,42.54
2023-08-14T20:20:43.026Z,42.63
2023-08-14T20:23:11.277Z,42.98
2023-08-14T20:25:43.194Z,42.95
2023-08-14T20:28:14.112Z,43.03
2023-08-14T20:30:49.723Z,43.47
2023-08-14T20:33:17.181Z,43.39
2023-08-14T20:35:45.732Z,43.12
2023-08-14T20:38:13.674Z,43.34
2023-08-14T20:40:43.679Z,43.75
2023-08-14T20:43:14.027Z,44.19
2023-08-14T20:45:41.395Z,43.96
2023-08-14T20:48:09.264Z,44.13
2023-08-14T20:50:36.884Z,44.30
2023-08-14T20:53:06.859Z,44.07
2023-08-14T20:55:34.479Z,44.26
2023-08-14T20:58:01.772Z,44.19
2023-08-14T21:00:30.191Z,44.34
2023-08-14T21:03:00.145Z,44.44
2023-08-14T21:05:30.442Z,44.40
2023-08-14T21:07:59.088Z,44.72
2023-08-14T21:10:26.219Z,44.79
2023-08-14T21:12:53.413Z,45.26
2023-08-14T21:15:23.562Z,45.29
2023-08-14T21:17:52.269Z,45.20
2023-08-14T21:20:22.374Z,45.69
2023-08-14T21:22:50.007Z,45.86
2023-08-14T21:25:17.109Z,46.11
2023-08-14T21:27:47.769Z,45.71
2023-08-14T21:30:14.804Z,45.73
2023-08-14T21:32:42.055Z,45.51
2023-08-14T21:35:12.664Z,45.44
2023-08-14T21:37:43.677Z,45.36
2023-08-14T21:40:11.226Z,45.48
2023-08-14T21:42:38.581Z,45.75
2023-08-14T21:45:07.406Z,46.32
2023-08-14T21:47:34.870Z,46.10
2023-08-14T21:50:01.806Z,46.15
2023-08-14T21:52:31.474Z,45.98
2023-08-14T21:55:01.162Z,45.80
2023-08-14T21:57:28.538Z,46.15
2023-08-14T21:59:55.565Z,45.75
2023-08-14T22:02:22.995Z,46.24
2023-08-14T22:04:50.455Z,45.96
2023-08-14T22:07:18.016Z,46.33
2023-08-14T22:09:46.567Z,46.42
2023-08-14T22:12:13.975Z,46.74
2023-08-14T22:14:40.951Z,47.01
2023-08-14T22:17:09.614Z,47.08
2023-08-14T22:19:39.434Z,46.65
2023-08-14T22:22:13.888Z,47.18
2023-08-14T22:24:41.963Z,47.46
2023-08-14T22:27:18.382Z,47.13
2023-08-14T22:29:45.711Z,47.21
2023-08-14T22:32:15.170Z,47.68
2023-08-14T22:34:42.473Z,48.02
2023-08-14T22:37:10.029Z,48.05
2023-08-14T22:39:37.075Z,48.61
2023-08-14T22:42:10.341Z,48.88
2023-08-14T22:44:41.623Z,49.19
2023-08-14T22:47:08.867Z,49.98
2023-08-14T22:49:35.795Z,49.78
2023-08-14T22:52:03.389Z,49.85
2023-08-14T22:54:31.439Z,49.43
2023-08-14T22:56:58.658Z,49.58
2023-08-14T22:59:25.685Z,49.26
2023-08-14T23:01:54.322Z,49.65
2023-08-14T23:04:21.540Z,49.20
2023-08-14T23:06:48.909Z,49.33
2023-08-14T23:09:15.866Z,49.39
2023-08-14T23:11:43.124Z,49.46
2023-08-14T23:14:10.242Z,49.74
2023-08-14T23:16:37.525Z,49.66
2023-08-14T23:19:06.268Z,49.92
2023-08-14T23:21:33.727Z,49.85
2023-08-14T23:24:00.705Z,50.00
2023-08-14T23:26:28.129Z,50.38
2023-08-14T23:28:55.124Z,50.78
2023-08-14T23:31:22.399Z,51.41
2023-08-14T23:33:49.446Z,51.96
2023-08-14T23:36:18.075Z,52.49
2023-08-14T23:38:45.796Z,52.46
2023-08-14T23:41:13.151Z,53.59
2023-08-14T23:43:40.353Z,54.53
2023-08-14T23:46:07.642Z,54.45
2023-08-14T23:48:34.501Z,54.87
2023-08-14T23:51:01.752Z,55.38
2023-08-14T23:53:30.031Z,55.18
2023-08-14T23:55:57.065Z,55.17
2023-08-14T23:58:24.044Z,54.88
